Time;durP1;ratioP1;P1;durP2;ratioP2;P2;SDS_P1;SDS_P2;PMS_P1;PMS_P2;Temp;Humidity;BMP_temperature;BMP_pressure;BME280_temperature;BME280_humidity;BME280_pressure;Samples;Min_cycle;Max_cycle;Signal;HPM_P1;HPM_P2
2022/12/29 00:01:29;;;;;;;0.50;0.50;;;;;;;;;;4538424;28;20664;-62
2022/12/29 00:03:39;;;;;;;0.63;0.40;;;;;;;;;;4538347;28;20500;-63
2022/12/29 00:05:57;;;;;;;0.40;0.40;;;;;;;;;;4538428;28;20033;-62
2022/12/29 00:08:07;;;;;;;0.40;0.40;;;;;;;;;;4538391;28;20076;-62
2022/12/29 00:10:17;;;;;;;0.40;0.40;;;;;;;;;;4539046;28;20148;-63
2022/12/29 00:15:36;;;;;;;0.30;0.30;;;;;;;;;;4537588;28;20075;-63
2022/12/29 00:17:27;;;;;;;0.40;0.40;;;;;;;;;;4539414;28;20032;-63
2022/12/29 00:37:05;;;;;;;0.30;0.30;;;;;;;;;;4538193;28;20614;-62
2022/12/29 00:44:17;;;;;;;0.22;0.22;;;;;;;;;;4538282;28;20057;-63
2022/12/29 00:46:28;;;;;;;0.40;0.40;;;;;;;;;;4537246;28;20037;-62
2022/12/29 00:51:08;;;;;;;0.28;0.28;;;;;;;;;;4554163;28;20045;-62
2022/12/29 00:53:18;;;;;;;0.30;0.30;;;;;;;;;;4549580;28;20400;-63
2022/12/29 00:55:29;;;;;;;0.40;0.32;;;;;;;;;;4538160;28;20144;-63
2022/12/29 00:57:39;;;;;;;0.32;0.30;;;;;;;;;;4529807;28;20401;-63
2022/12/29 00:59:49;;;;;;;0.40;0.40;;;;;;;;;;4538261;28;20063;-62
2022/12/29 01:02:00;;;;;;;0.30;0.30;;;;;;;;;;4520417;28;20029;-62
2022/12/29 01:04:12;;;;;;;0.40;0.40;;;;;;;;;;4538576;28;20040;-62
2022/12/29 01:06:22;;;;;;;0.30;0.30;;;;;;;;;;4537590;28;20764;-63
2022/12/29 01:08:33;;;;;;;0.30;0.30;;;;;;;;;;4537794;28;20064;-63
2022/12/29 01:10:43;;;;;;;0.40;0.40;;;;;;;;;;4538013;28;20037;-63
2022/12/29 01:12:54;;;;;;;0.30;0.30;;;;;;;;;;4537160;28;20090;-62
2022/12/29 01:15:04;;;;;;;0.30;0.30;;;;;;;;;;4530806;28;20033;-62
2022/12/29 01:17:14;;;;;;;0.32;0.32;;;;;;;;;;4536928;28;20051;-62
2022/12/29 01:19:25;;;;;;;0.40;0.40;;;;;;;;;;4539018;28;20079;-63
2022/12/29 01:21:35;;;;;;;0.30;0.30;;;;;;;;;;4536919;28;20036;-63
2022/12/29 01:23:46;;;;;;;0.30;0.30;;;;;;;;;;4537931;28;20048;-62
2022/12/29 01:25:56;;;;;;;0.30;0.30;;;;;;;;;;4537447;28;20087;-62
2022/12/29 01:28:08;;;;;;;0.32;0.32;;;;;;;;;;4536539;28;20043;-63
2022/12/29 01:30:18;;;;;;;0.20;0.20;;;;;;;;;;4537341;28;20047;-62
2022/12/29 01:32:28;;;;;;;0.30;0.30;;;;;;;;;;4535659;28;20075;-63
2022/12/29 01:34:39;;;;;;;0.52;0.40;;;;;;;;;;4536434;28;20556;-62
2022/12/29 01:36:49;;;;;;;0.28;0.28;;;;;;;;;;4536310;28;20041;-62
2022/12/29 01:39:00;;;;;;;0.30;0.30;;;;;;;;;;4534563;28;20060;-62
2022/12/29 01:41:11;;;;;;;0.20;0.20;;;;;;;;;;4535957;28;20043;-62
2022/12/29 01:43:38;;;;;;;0.63;0.45;;;;;;;;;;4536429;28;20033;-62
2022/12/29 01:45:50;;;;;;;0.20;0.20;;;;;;;;;;4536348;28;20115;-62
2022/12/29 01:48:03;;;;;;;0.30;0.30;;;;;;;;;;4536475;28;20025;-62
2022/12/29 01:50:17;;;;;;;0.20;0.20;;;;;;;;;;4536774;28;20223;-62
2022/12/29 01:52:29;;;;;;;0.20;0.20;;;;;;;;;;4525326;28;20073;-62
2022/12/29 01:54:46;;;;;;;0.22;0.22;;;;;;;;;;4536656;28;20630;-62
2022/12/29 01:56:58;;;;;;;0.35;0.35;;;;;;;;;;4548680;28;20076;-62
2022/12/29 01:59:12;;;;;;;0.52;0.30;;;;;;;;;;4526098;28;20864;-63
2022/12/29 02:01:22;;;;;;;0.30;0.30;;;;;;;;;;4526101;28;20505;-63
2022/12/29 02:03:34;;;;;;;0.30;0.30;;;;;;;;;;4549610;28;20040;-62
2022/12/29 02:05:44;;;;;;;0.40;0.40;;;;;;;;;;4536858;28;20507;-62
2022/12/29 02:07:56;;;;;;;0.25;0.25;;;;;;;;;;4537242;28;20024;-62
2022/12/29 02:10:07;;;;;;;0.22;0.22;;;;;;;;;;4534772;28;20508;-62
2022/12/29 02:12:18;;;;;;;0.20;0.20;;;;;;;;;;4535419;28;20033;-62
2022/12/29 02:14:29;;;;;;;0.20;0.20;;;;;;;;;;4536206;28;20107;-63
2022/12/29 02:16:58;;;;;;;0.20;0.20;;;;;;;;;;4536554;28;20318;-62
2022/12/29 02:19:24;;;;;;;0.17;0.17;;;;;;;;;;4536659;28;20531;-62
2022/12/29 02:21:49;;;;;;;0.20;0.20;;;;;;;;;;4525173;28;20148;-62
2022/12/29 02:24:09;;;;;;;0.20;0.20;;;;;;;;;;4537169;28;20590;-62
2022/12/29 02:26:29;;;;;;;0.30;0.30;;;;;;;;;;4528930;28;20045;-62
2022/12/29 02:28:42;;;;;;;0.10;0.10;;;;;;;;;;4536627;28;20043;-62
2022/12/29 02:30:55;;;;;;;0.30;0.30;;;;;;;;;;4536162;28;20045;-62
2022/12/29 02:33:06;;;;;;;0.20;0.20;;;;;;;;;;4535875;28;20036;-64
2022/12/29 02:35:25;;;;;;;0.28;0.28;;;;;;;;;;4538313;28;20496;-63
2022/12/29 02:37:45;;;;;;;0.20;0.20;;;;;;;;;;4523560;28;20037;-62
2022/12/29 02:40:04;;;;;;;0.30;0.30;;;;;;;;;;4551382;28;20175;-63
2022/12/29 02:42:31;;;;;;;0.20;0.20;;;;;;;;;;4524173;28;20710;-63
2022/12/29 02:45:05;;;;;;;0.20;0.20;;;;;;;;;;4527085;28;20040;-62
2022/12/29 02:47:22;;;;;;;0.22;0.22;;;;;;;;;;4514651;28;20053;-63
2022/12/29 02:49:35;;;;;;;0.20;0.20;;;;;;;;;;4524197;28;20030;-63
2022/12/29 02:51:54;;;;;;;0.20;0.20;;;;;;;;;;4535585;28;20528;-62
2022/12/29 02:54:49;;;;;;;0.30;0.30;;;;;;;;;;4526604;28;20045;-62
2022/12/29 02:56:41;;;;;;;0.15;0.15;;;;;;;;;;4530387;28;20119;-63
2022/12/29 02:58:51;;;;;;;0.20;0.20;;;;;;;;;;4538089;28;20582;-62
2022/12/29 03:01:02;;;;;;;0.20;0.20;;;;;;;;;;4538562;28;20045;-63
2022/12/29 03:03:12;;;;;;;0.20;0.20;;;;;;;;;;4538696;28;20504;-63
2022/12/29 03:05:41;;;;;;;0.20;0.20;;;;;;;;;;4554336;28;20040;-62
2022/12/29 03:08:04;;;;;;;0.20;0.20;;;;;;;;;;4538190;28;20140;-63
2022/12/29 03:10:15;;;;;;;0.20;0.20;;;;;;;;;;4527068;28;20570;-63
2022/12/29 03:17:40;;;;;;;0.30;0.30;;;;;;;;;;4553464;28;20137;-62
2022/12/29 03:19:52;;;;;;;0.47;0.20;;;;;;;;;;4548338;28;20175;-63
2022/12/29 03:24:46;;;;;;;0.30;0.30;;;;;;;;;;4538718;28;20083;-62
2022/12/29 03:26:58;;;;;;;0.20;0.20;;;;;;;;;;4538523;28;20632;-63
2022/12/29 03:29:12;;;;;;;0.20;0.20;;;;;;;;;;4537280;28;20649;-62
2022/12/29 03:31:23;;;;;;;0.20;0.20;;;;;;;;;;4538534;28;20094;-62
2022/12/29 03:33:35;;;;;;;0.20;0.20;;;;;;;;;;4528528;28;20699;-62
2022/12/29 03:35:48;;;;;;;0.20;0.20;;;;;;;;;;4527189;28;20891;-62
2022/12/29 03:38:05;;;;;;;0.20;0.20;;;;;;;;;;4536977;28;20071;-63
2022/12/29 03:40:16;;;;;;;0.20;0.20;;;;;;;;;;4537382;28;20669;-62
2022/12/29 03:42:28;;;;;;;0.30;0.28;;;;;;;;;;4536458;28;20164;-62
2022/12/29 03:44:40;;;;;;;0.20;0.20;;;;;;;;;;4538053;28;20021;-62
2022/12/29 03:46:52;;;;;;;0.70;0.70;;;;;;;;;;4527170;28;20184;-62
2022/12/29 03:49:02;;;;;;;1.00;1.00;;;;;;;;;;4537919;28;20059;-62
2022/12/29 03:51:12;;;;;;;0.68;0.68;;;;;;;;;;4538138;28;20041;-62
2022/12/29 03:53:23;;;;;;;0.30;0.30;;;;;;;;;;4548797;28;20519;-62
2022/12/29 03:55:33;;;;;;;0.28;0.28;;;;;;;;;;4538222;28;20586;-62
2022/12/29 03:57:44;;;;;;;0.30;0.30;;;;;;;;;;4538666;28;20083;-62
2022/12/29 03:59:59;;;;;;;0.30;0.30;;;;;;;;;;4539191;28;20036;-61
2022/12/29 04:02:09;;;;;;;0.20;0.20;;;;;;;;;;4538207;28;20029;-62
2022/12/29 04:04:20;;;;;;;0.22;0.22;;;;;;;;;;4538602;28;20041;-62
2022/12/29 04:06:31;;;;;;;0.20;0.20;;;;;;;;;;4553156;28;20055;-61
2022/12/29 04:08:46;;;;;;;0.30;0.30;;;;;;;;;;4537361;28;20071;-61
2022/12/29 04:10:56;;;;;;;0.30;0.30;;;;;;;;;;4537918;28;20415;-62
2022/12/29 04:13:07;;;;;;;0.22;0.20;;;;;;;;;;4536203;28;20036;-61
2022/12/29 04:15:17;;;;;;;0.22;0.22;;;;;;;;;;4538508;28;20087;-62
2022/12/29 04:17:27;;;;;;;0.28;0.28;;;;;;;;;;4553339;28;20100;-62
2022/12/29 04:19:38;;;;;;;0.30;0.30;;;;;;;;;;4536422;28;20033;-62
2022/12/29 04:21:48;;;;;;;0.20;0.20;;;;;;;;;;4536200;28;20098;-62
2022/12/29 04:23:59;;;;;;;0.20;0.20;;;;;;;;;;4537680;28;20757;-62
2022/12/29 04:26:10;;;;;;;0.28;0.20;;;;;;;;;;4536539;28;20029;-62
2022/12/29 04:28:30;;;;;;;0.20;0.20;;;;;;;;;;4536673;28;20087;-62
2022/12/29 04:31:01;;;;;;;0.20;0.20;;;;;;;;;;4536608;28;20147;-61
2022/12/29 04:33:17;;;;;;;0.40;0.30;;;;;;;;;;4552202;28;20037;-62
2022/12/29 04:35:27;;;;;;;0.22;0.20;;;;;;;;;;4537808;28;20401;-62
2022/12/29 04:37:38;;;;;;;0.20;0.20;;;;;;;;;;4536310;28;20182;-62
2022/12/29 04:39:48;;;;;;;0.20;0.20;;;;;;;;;;4538087;28;20091;-62
2022/12/29 04:41:58;;;;;;;0.30;0.30;;;;;;;;;;4537131;28;20041;-62
2022/12/29 04:44:09;;;;;;;0.20;0.20;;;;;;;;;;4537048;28;20104;-62
2022/12/29 04:46:37;;;;;;;0.28;0.28;;;;;;;;;;4538223;28;21084;-62
2022/12/29 04:49:08;;;;;;;0.20;0.20;;;;;;;;;;4552731;28;21211;-62
2022/12/29 04:51:38;;;;;;;0.20;0.20;;;;;;;;;;4536516;28;20147;-62
2022/12/29 04:53:51;;;;;;;0.30;0.30;;;;;;;;;;4549103;28;20587;-62
2022/12/29 04:56:01;;;;;;;0.20;0.20;;;;;;;;;;4537927;28;20033;-62
2022/12/29 04:58:12;;;;;;;0.30;0.30;;;;;;;;;;4539498;28;20568;-62
2022/12/29 05:00:22;;;;;;;0.30;0.20;;;;;;;;;;4536091;28;20094;-61
2022/12/29 05:02:33;;;;;;;0.20;0.20;;;;;;;;;;4536810;28;20049;-62
2022/12/29 05:04:43;;;;;;;0.30;0.30;;;;;;;;;;4537277;28;20417;-62
2022/12/29 05:06:53;;;;;;;0.20;0.20;;;;;;;;;;4537191;28;20052;-62
2022/12/29 05:09:03;;;;;;;0.20;0.20;;;;;;;;;;4537627;28;20041;-62
2022/12/29 05:11:14;;;;;;;0.20;0.20;;;;;;;;;;4538474;28;20036;-62
2022/12/29 05:13:24;;;;;;;0.20;0.20;;;;;;;;;;4535552;28;20469;-62
2022/12/29 05:15:35;;;;;;;0.20;0.20;;;;;;;;;;4536865;28;20407;-62
2022/12/29 05:17:45;;;;;;;0.47;0.20;;;;;;;;;;4536709;28;20060;-63
2022/12/29 05:19:56;;;;;;;0.15;0.15;;;;;;;;;;4518602;28;20034;-62
2022/12/29 05:22:06;;;;;;;0.20;0.20;;;;;;;;;;4536568;28;20530;-62
2022/12/29 05:24:17;;;;;;;0.20;0.20;;;;;;;;;;4518918;28;20038;-62
2022/12/29 05:26:27;;;;;;;0.10;0.10;;;;;;;;;;4537434;28;20494;-62
2022/12/29 05:28:52;;;;;;;0.13;0.13;;;;;;;;;;4537026;28;20021;-62
2022/12/29 05:31:03;;;;;;;0.20;0.20;;;;;;;;;;4538137;28;20048;-62
2022/12/29 05:33:14;;;;;;;0.20;0.20;;;;;;;;;;4536983;28;20040;-61
2022/12/29 05:35:25;;;;;;;0.20;0.20;;;;;;;;;;4536515;28;20040;-62
2022/12/29 05:37:35;;;;;;;0.20;0.20;;;;;;;;;;4537392;28;20141;-62
2022/12/29 05:39:46;;;;;;;0.10;0.10;;;;;;;;;;4537701;28;20032;-62
2022/12/29 05:41:57;;;;;;;0.20;0.20;;;;;;;;;;4537394;28;21142;-61
2022/12/29 05:44:12;;;;;;;0.10;0.10;;;;;;;;;;4538118;28;20929;-62
2022/12/29 05:46:54;;;;;;;0.20;0.20;;;;;;;;;;4547610;28;20106;-61
2022/12/29 05:49:16;;;;;;;0.15;0.15;;;;;;;;;;4536608;28;20039;-62
2022/12/29 05:51:42;;;;;;;0.10;0.10;;;;;;;;;;4537130;28;20493;-62
2022/12/29 05:53:53;;;;;;;0.30;0.30;;;;;;;;;;4526594;28;20037;-62
2022/12/29 05:56:03;;;;;;;0.20;0.20;;;;;;;;;;4534718;28;20056;-62
2022/12/29 05:58:14;;;;;;;0.20;0.20;;;;;;;;;;4529779;28;20041;-62
2022/12/29 06:00:25;;;;;;;0.43;0.40;;;;;;;;;;4526972;28;20032;-62
2022/12/29 06:02:36;;;;;;;0.90;0.90;;;;;;;;;;4535915;28;20725;-62
2022/12/29 06:04:46;;;;;;;0.30;0.30;;;;;;;;;;4534651;28;20037;-62
2022/12/29 06:06:57;;;;;;;0.17;0.17;;;;;;;;;;4535802;28;20033;-62
2022/12/29 06:09:17;;;;;;;0.15;0.15;;;;;;;;;;4538185;28;20143;-63
2022/12/29 06:11:28;;;;;;;0.20;0.20;;;;;;;;;;4536463;28;20619;-62
2022/12/29 06:13:42;;;;;;;0.25;0.20;;;;;;;;;;4535307;28;20599;-62
2022/12/29 06:15:52;;;;;;;0.10;0.10;;;;;;;;;;4524440;28;20125;-62
2022/12/29 06:18:03;;;;;;;0.30;0.30;;;;;;;;;;4536817;28;20302;-62
2022/12/29 06:20:13;;;;;;;0.15;0.15;;;;;;;;;;4536206;28;20800;-62
2022/12/29 06:22:24;;;;;;;0.15;0.15;;;;;;;;;;4535917;28;20021;-61
2022/12/29 06:24:34;;;;;;;0.20;0.20;;;;;;;;;;4535622;28;20611;-62
2022/12/29 06:26:45;;;;;;;0.30;0.30;;;;;;;;;;4525612;28;20568;-62
2022/12/29 06:28:55;;;;;;;0.20;0.20;;;;;;;;;;4537190;28;20064;-62
2022/12/29 06:31:08;;;;;;;0.30;0.30;;;;;;;;;;4535099;28;20081;-62
2022/12/29 06:33:18;;;;;;;0.20;0.20;;;;;;;;;;4537527;28;20049;-62
2022/12/29 06:35:29;;;;;;;0.30;0.20;;;;;;;;;;4539738;28;20041;-62
2022/12/29 06:37:39;;;;;;;0.40;0.30;;;;;;;;;;4530578;28;20132;-62
2022/12/29 06:39:50;;;;;;;0.30;0.30;;;;;;;;;;4540883;28;20033;-62
2022/12/29 06:42:01;;;;;;;0.20;0.20;;;;;;;;;;4537505;28;20029;-62
2022/12/29 06:44:39;;;;;;;0.10;0.10;;;;;;;;;;4539606;28;20186;-62
2022/12/29 06:46:53;;;;;;;0.20;0.20;;;;;;;;;;4539657;28;20037;-61
2022/12/29 06:49:03;;;;;;;0.20;0.20;;;;;;;;;;4539137;28;20509;-61
2022/12/29 06:51:14;;;;;;;0.30;0.30;;;;;;;;;;4539625;28;20459;-61
2022/12/29 06:53:24;;;;;;;0.20;0.20;;;;;;;;;;4538805;28;20025;-62
2022/12/29 06:55:34;;;;;;;0.20;0.20;;;;;;;;;;4539076;28;20099;-62
2022/12/29 06:57:45;;;;;;;0.20;0.20;;;;;;;;;;4538976;28;20037;-61
2022/12/29 06:59:58;;;;;;;0.20;0.20;;;;;;;;;;4538305;28;20463;-62
2022/12/29 07:02:10;;;;;;;0.30;0.30;;;;;;;;;;4538539;28;20041;-62
2022/12/29 07:04:20;;;;;;;0.30;0.30;;;;;;;;;;4539349;28;20167;-62
2022/12/29 07:06:31;;;;;;;0.20;0.20;;;;;;;;;;4540227;28;20536;-62
2022/12/29 07:08:41;;;;;;;0.30;0.30;;;;;;;;;;4539080;28;20033;-62
2022/12/29 07:10:51;;;;;;;0.30;0.20;;;;;;;;;;4538951;28;20596;-61
2022/12/29 07:13:01;;;;;;;0.20;0.20;;;;;;;;;;4539493;28;20140;-62
2022/12/29 07:15:12;;;;;;;0.47;0.30;;;;;;;;;;4538726;28;20044;-62
2022/12/29 07:17:22;;;;;;;0.22;0.20;;;;;;;;;;4538805;28;20174;-61
2022/12/29 07:19:33;;;;;;;0.20;0.20;;;;;;;;;;4538516;28;20218;-62
2022/12/29 07:21:44;;;;;;;0.20;0.20;;;;;;;;;;4538134;28;20044;-62
2022/12/29 07:23:54;;;;;;;0.28;0.20;;;;;;;;;;4538905;28;20029;-62
2022/12/29 07:26:06;;;;;;;0.20;0.20;;;;;;;;;;4538243;28;20056;-62
2022/12/29 07:28:16;;;;;;;0.13;0.13;;;;;;;;;;4538574;28;20791;-62
2022/12/29 07:30:26;;;;;;;0.10;0.10;;;;;;;;;;4538186;28;20041;-62
2022/12/29 07:32:37;;;;;;;0.20;0.20;;;;;;;;;;4537421;28;20166;-62
2022/12/29 07:34:47;;;;;;;0.15;0.10;;;;;;;;;;4538544;28;20517;-62
2022/12/29 07:36:57;;;;;;;0.20;0.20;;;;;;;;;;4538172;28;20057;-62
2022/12/29 07:39:08;;;;;;;0.20;0.10;;;;;;;;;;4537829;28;20120;-61
2022/12/29 07:41:18;;;;;;;0.10;0.10;;;;;;;;;;4538624;28;20525;-62
2022/12/29 07:43:28;;;;;;;0.20;0.20;;;;;;;;;;4536512;28;20095;-61
2022/12/29 07:46:09;;;;;;;0.20;0.20;;;;;;;;;;4536166;28;20044;-62
2022/12/29 07:48:21;;;;;;;0.32;0.20;;;;;;;;;;4537102;28;20075;-62
2022/12/29 07:50:31;;;;;;;0.38;0.30;;;;;;;;;;4538303;28;20037;-61
2022/12/29 07:52:41;;;;;;;0.40;0.20;;;;;;;;;;4537373;28;20037;-62
2022/12/29 07:54:52;;;;;;;0.20;0.20;;;;;;;;;;4536826;28;20041;-62
2022/12/29 07:57:02;;;;;;;0.20;0.20;;;;;;;;;;4537675;28;20766;-63
2022/12/29 07:59:13;;;;;;;0.30;0.25;;;;;;;;;;4536693;28;20269;-62
2022/12/29 08:01:23;;;;;;;0.20;0.20;;;;;;;;;;4536911;28;20028;-63
2022/12/29 08:03:33;;;;;;;0.22;0.20;;;;;;;;;;4538216;28;20048;-62
2022/12/29 08:05:44;;;;;;;0.30;0.30;;;;;;;;;;4538217;28;20528;-62
2022/12/29 08:07:54;;;;;;;0.30;0.30;;;;;;;;;;4531718;28;20049;-62
2022/12/29 08:10:05;;;;;;;0.10;0.10;;;;;;;;;;4529408;28;20041;-62
2022/12/29 08:12:15;;;;;;;0.28;0.20;;;;;;;;;;4536250;28;20036;-62
2022/12/29 08:14:26;;;;;;;0.20;0.20;;;;;;;;;;4531465;28;20025;-62
2022/12/29 08:16:36;;;;;;;0.20;0.20;;;;;;;;;;4536784;28;20057;-62
2022/12/29 08:18:46;;;;;;;0.17;0.17;;;;;;;;;;4536805;28;20033;-62
2022/12/29 08:21:01;;;;;;;0.55;0.30;;;;;;;;;;4537013;28;20562;-62
2022/12/29 08:23:11;;;;;;;0.20;0.20;;;;;;;;;;4536221;28;20614;-62
2022/12/29 08:25:21;;;;;;;0.20;0.20;;;;;;;;;;4536661;28;20048;-62
2022/12/29 08:27:32;;;;;;;0.13;0.13;;;;;;;;;;4536347;28;20095;-62
2022/12/29 08:29:42;;;;;;;0.20;0.20;;;;;;;;;;4535950;28;20583;-62
2022/12/29 08:31:52;;;;;;;0.20;0.20;;;;;;;;;;4536151;28;21042;-63
2022/12/29 08:34:03;;;;;;;0.20;0.20;;;;;;;;;;4534604;28;20071;-61
2022/12/29 08:36:13;;;;;;;0.20;0.20;;;;;;;;;;4536631;28;20036;-62
2022/12/29 08:38:24;;;;;;;0.25;0.25;;;;;;;;;;4536165;28;20397;-62
2022/12/29 08:40:34;;;;;;;0.22;0.20;;;;;;;;;;4537136;28;20630;-62
2022/12/29 08:42:44;;;;;;;0.55;0.40;;;;;;;;;;4536648;28;20059;-65
2022/12/29 08:44:54;;;;;;;0.40;0.35;;;;;;;;;;4536407;28;20051;-62
2022/12/29 08:47:05;;;;;;;0.40;0.40;;;;;;;;;;4533908;28;20032;-59
2022/12/29 08:49:15;;;;;;;0.30;0.30;;;;;;;;;;4536175;28;20835;-59
2022/12/29 08:51:25;;;;;;;0.20;0.20;;;;;;;;;;4530729;28;20628;-60
2022/12/29 08:53:36;;;;;;;0.20;0.20;;;;;;;;;;4536590;28;20049;-58
2022/12/29 08:55:47;;;;;;;0.30;0.30;;;;;;;;;;4534845;28;20095;-66
2022/12/29 08:57:57;;;;;;;0.20;0.20;;;;;;;;;;4528453;28;20042;-65
2022/12/29 09:00:08;;;;;;;0.30;0.20;;;;;;;;;;4536150;28;20366;-63
2022/12/29 09:02:19;;;;;;;0.40;0.30;;;;;;;;;;4536111;28;20532;-64
2022/12/29 09:04:29;;;;;;;0.20;0.20;;;;;;;;;;4535808;28;20037;-61
2022/12/29 09:06:39;;;;;;;0.20;0.20;;;;;;;;;;4537733;28;20036;-59
2022/12/29 09:08:49;;;;;;;0.30;0.22;;;;;;;;;;4536061;28;20040;-59
2022/12/29 09:11:10;;;;;;;0.25;0.20;;;;;;;;;;4535907;28;20036;-60
2022/12/29 09:13:21;;;;;;;0.63;0.32;;;;;;;;;;4535988;28;20603;-59
2022/12/29 09:15:31;;;;;;;0.25;0.25;;;;;;;;;;4535308;28;20352;-60
2022/12/29 09:17:45;;;;;;;0.20;0.20;;;;;;;;;;4536092;28;20360;-61
2022/12/29 09:19:55;;;;;;;0.30;0.30;;;;;;;;;;4536476;28;20028;-61
2022/12/29 09:22:05;;;;;;;0.30;0.30;;;;;;;;;;4535580;28;20043;-61
2022/12/29 09:24:16;;;;;;;0.25;0.25;;;;;;;;;;4534770;28;20040;-61
2022/12/29 09:26:26;;;;;;;0.20;0.20;;;;;;;;;;4534355;28;20062;-59
2022/12/29 09:28:36;;;;;;;0.93;0.32;;;;;;;;;;4535543;28;20040;-59
2022/12/29 09:30:47;;;;;;;0.35;0.25;;;;;;;;;;4535194;28;20087;-60
2022/12/29 09:32:57;;;;;;;0.30;0.30;;;;;;;;;;4533135;28;20037;-59
2022/12/29 09:35:07;;;;;;;0.85;0.30;;;;;;;;;;4534920;28;20041;-59
2022/12/29 09:37:18;;;;;;;1.08;0.47;;;;;;;;;;4534701;28;20045;-59
2022/12/29 09:39:28;;;;;;;0.20;0.20;;;;;;;;;;4533846;28;20033;-60
2022/12/29 09:41:41;;;;;;;0.32;0.28;;;;;;;;;;4534958;28;20036;-59
2022/12/29 09:43:59;;;;;;;0.38;0.30;;;;;;;;;;4535583;28;20545;-61
2022/12/29 09:46:23;;;;;;;0.20;0.20;;;;;;;;;;4534292;28;20079;-59
2022/12/29 09:48:37;;;;;;;0.30;0.20;;;;;;;;;;4534087;28;20069;-59
2022/12/29 09:50:49;;;;;;;0.20;0.20;;;;;;;;;;4535129;28;20053;-59
2022/12/29 09:53:03;;;;;;;0.52;0.30;;;;;;;;;;4535625;28;20029;-60
2022/12/29 09:55:15;;;;;;;0.38;0.30;;;;;;;;;;4535611;28;20033;-59
2022/12/29 09:57:38;;;;;;;0.30;0.30;;;;;;;;;;4535108;28;20592;-59
2022/12/29 09:59:50;;;;;;;0.52;0.20;;;;;;;;;;4535494;28;20037;-59
2022/12/29 10:02:20;;;;;;;0.30;0.30;;;;;;;;;;4534460;28;20037;-59
2022/12/29 10:04:30;;;;;;;0.80;0.30;;;;;;;;;;4512296;28;20041;-60
2022/12/29 10:07:00;;;;;;;0.30;0.22;;;;;;;;;;4529052;28;20580;-60
2022/12/29 10:09:19;;;;;;;0.30;0.30;;;;;;;;;;4535186;28;20076;-60
2022/12/29 10:11:51;;;;;;;0.35;0.32;;;;;;;;;;4535242;28;20556;-59
2022/12/29 10:14:12;;;;;;;0.40;0.30;;;;;;;;;;4535625;28;20029;-60
2022/12/29 10:16:28;;;;;;;0.55;0.30;;;;;;;;;;4534499;28;20556;-59
2022/12/29 10:18:50;;;;;;;0.20;0.20;;;;;;;;;;4534746;28;20097;-59
2022/12/29 10:21:01;;;;;;;0.38;0.30;;;;;;;;;;4535951;28;20242;-59
2022/12/29 10:23:14;;;;;;;0.50;0.30;;;;;;;;;;4535451;28;20045;-59
2022/12/29 10:25:26;;;;;;;0.52;0.40;;;;;;;;;;4550849;28;20060;-59
2022/12/29 10:27:37;;;;;;;0.32;0.20;;;;;;;;;;4535025;28;20842;-59
2022/12/29 10:29:53;;;;;;;0.50;0.28;;;;;;;;;;4534536;28;20040;-59
2022/12/29 10:32:10;;;;;;;0.63;0.30;;;;;;;;;;4534080;28;20037;-60
2022/12/29 10:34:20;;;;;;;;;;;;;;;;;;4535021;28;20236;-59
2022/12/29 10:36:34;;;;;;;0.30;0.30;;;;;;;;;;4534739;28;19921;-60
2022/12/29 10:38:49;;;;;;;0.50;0.38;;;;;;;;;;4535118;28;20033;-60
2022/12/29 10:41:02;;;;;;;0.30;0.30;;;;;;;;;;4533569;28;20053;-59
2022/12/29 10:43:29;;;;;;;0.30;0.30;;;;;;;;;;4534553;28;20746;-59
2022/12/29 10:45:40;;;;;;;0.32;0.30;;;;;;;;;;4523940;28;20048;-59
2022/12/29 10:48:03;;;;;;;1.77;0.40;;;;;;;;;;4534412;28;20413;-60
2022/12/29 10:50:13;;;;;;;1.05;0.40;;;;;;;;;;4534954;28;20838;-60
2022/12/29 10:52:25;;;;;;;0.30;0.30;;;;;;;;;;4534411;28;20029;-60
2022/12/29 10:54:42;;;;;;;0.68;0.40;;;;;;;;;;4533668;28;20652;-60
2022/12/29 10:56:52;;;;;;;;;;;;;;;;;;4534307;28;20419;-60
2022/12/29 10:59:10;;;;;;;0.43;0.30;;;;;;;;;;4534523;28;19916;-60
2022/12/29 11:01:21;;;;;;;0.30;0.30;;;;;;;;;;4534799;28;20921;-60
2022/12/29 11:03:41;;;;;;;0.77;0.40;;;;;;;;;;4533456;28;20135;-62
2022/12/29 11:06:00;;;;;;;0.52;0.30;;;;;;;;;;4532501;28;20068;-61
2022/12/29 11:08:21;;;;;;;0.40;0.30;;;;;;;;;;4533385;28;20683;-59
2022/12/29 11:10:36;;;;;;;0.38;0.30;;;;;;;;;;4533843;28;20029;-60
2022/12/29 11:13:00;;;;;;;0.30;0.30;;;;;;;;;;4531945;28;20037;-58
2022/12/29 11:15:12;;;;;;;0.30;0.30;;;;;;;;;;4533842;28;20029;-61
2022/12/29 11:17:23;;;;;;;0.50;0.40;;;;;;;;;;4533663;28;20980;-58
2022/12/29 11:19:33;;;;;;;1.17;0.40;;;;;;;;;;4535107;28;20033;-60
2022/12/29 11:21:44;;;;;;;0.73;0.40;;;;;;;;;;4536786;28;20033;-61
2022/12/29 11:23:57;;;;;;;0.75;0.50;;;;;;;;;;4535361;28;20080;-59
2022/12/29 11:26:10;;;;;;;0.90;0.50;;;;;;;;;;4535838;28;20715;-59
2022/12/29 11:28:20;;;;;;;0.63;0.40;;;;;;;;;;4536113;28;20021;-59
2022/12/29 11:30:31;;;;;;;0.52;0.40;;;;;;;;;;4536318;28;20404;-58
2022/12/29 11:32:49;;;;;;;1.00;0.40;;;;;;;;;;4535561;28;20651;-61
2022/12/29 11:35:01;;;;;;;0.55;0.30;;;;;;;;;;4536946;28;20045;-60
2022/12/29 11:37:19;;;;;;;0.63;0.40;;;;;;;;;;4536435;28;20812;-64
2022/12/29 11:39:40;;;;;;;0.68;0.30;;;;;;;;;;4536985;28;20067;-61
2022/12/29 11:41:52;;;;;;;0.30;0.30;;;;;;;;;;4534966;28;20045;-60
2022/12/29 11:44:04;;;;;;;0.80;0.40;;;;;;;;;;4518106;28;20065;-57
2022/12/29 11:49:23;;;;;;;0.70;0.32;;;;;;;;;;4542413;22;20168;-62
2022/12/29 11:51:42;;;;;;;0.68;0.40;;;;;;;;;;4536800;28;20044;-62
2022/12/29 11:53:55;;;;;;;0.30;0.30;;;;;;;;;;4525198;28;20089;-62
2022/12/29 11:56:09;;;;;;;0.88;0.38;;;;;;;;;;4537331;28;20055;-62
2022/12/29 11:58:20;;;;;;;0.63;0.43;;;;;;;;;;4531374;28;20191;-62
2022/12/29 12:00:35;;;;;;;0.73;0.38;;;;;;;;;;4526679;28;20107;-62
2022/12/29 12:03:04;;;;;;;0.70;0.70;;;;;;;;;;4526346;28;20041;-62
2022/12/29 12:05:54;;;;;;;0.50;0.40;;;;;;;;;;4526946;28;20084;-62
2022/12/29 12:08:27;;;;;;;0.47;0.40;;;;;;;;;;4479978;28;20728;-62
2022/12/29 12:10:44;;;;;;;0.40;0.38;;;;;;;;;;4475212;28;20061;-62
2022/12/29 12:13:01;;;;;;;0.63;0.45;;;;;;;;;;4480891;28;21004;-64
2022/12/29 12:15:11;;;;;;;;;;;;;;;;;;4535167;28;20806;-64
2022/12/29 12:17:37;;;;;;;1.38;0.50;;;;;;;;;;4523852;28;19921;-64
2022/12/29 12:19:56;;;;;;;0.30;0.22;;;;;;;;;;4526843;28;20736;-62
2022/12/29 12:22:12;;;;;;;0.82;0.55;;;;;;;;;;4525643;28;20040;-62
2022/12/29 12:24:23;;;;;;;0.60;0.30;;;;;;;;;;4526060;28;20034;-63
2022/12/29 12:26:43;;;;;;;0.65;0.45;;;;;;;;;;4524277;28;20041;-62
2022/12/29 12:28:58;;;;;;;0.70;0.50;;;;;;;;;;4527017;28;20032;-63
2022/12/29 12:31:18;;;;;;;1.40;0.40;;;;;;;;;;4527239;28;20036;-63
2022/12/29 12:33:31;;;;;;;1.23;0.80;;;;;;;;;;4525866;28;20724;-63
2022/12/29 12:36:00;;;;;;;1.60;0.93;;;;;;;;;;4525343;28;20047;-62
2022/12/29 12:38:25;;;;;;;0.98;0.80;;;;;;;;;;4528287;28;20088;-63
2022/12/29 12:40:54;;;;;;;1.25;0.60;;;;;;;;;;4525059;28;20605;-62
2022/12/29 12:43:23;;;;;;;0.70;0.60;;;;;;;;;;4526370;28;20091;-62
2022/12/29 12:45:51;;;;;;;0.73;0.55;;;;;;;;;;4526452;28;20139;-62
2022/12/29 12:48:20;;;;;;;1.17;0.70;;;;;;;;;;4526478;28;20033;-62
2022/12/29 12:50:49;;;;;;;0.63;0.40;;;;;;;;;;4525879;28;20030;-62
2022/12/29 12:53:08;;;;;;;0.70;0.40;;;;;;;;;;4524600;28;20048;-63
2022/12/29 12:55:21;;;;;;;0.85;0.50;;;;;;;;;;4526438;28;20033;-62
2022/12/29 12:57:31;;;;;;;0.50;0.40;;;;;;;;;;4525601;28;20221;-62
2022/12/29 13:00:00;;;;;;;0.75;0.50;;;;;;;;;;4526354;28;20033;-62
2022/12/29 13:02:19;;;;;;;0.65;0.50;;;;;;;;;;4526173;28;20837;-62
2022/12/29 13:04:45;;;;;;;0.32;0.30;;;;;;;;;;4524140;28;20606;-62
2022/12/29 13:07:03;;;;;;;0.40;0.32;;;;;;;;;;4527079;28;20664;-61
2022/12/29 13:09:25;;;;;;;1.00;0.38;;;;;;;;;;4534818;28;20071;-63
2022/12/29 13:11:38;;;;;;;0.93;0.50;;;;;;;;;;4524903;28;20556;-62
2022/12/29 13:13:56;;;;;;;0.63;0.30;;;;;;;;;;4524417;28;20080;-62
2022/12/29 13:16:14;;;;;;;1.00;0.43;;;;;;;;;;4534603;28;20049;-62
2022/12/29 13:18:25;;;;;;;1.63;0.40;;;;;;;;;;4541664;28;20076;-62
2022/12/29 13:20:35;;;;;;;0.98;0.50;;;;;;;;;;4524955;28;20464;-61
2022/12/29 13:22:51;;;;;;;1.08;0.50;;;;;;;;;;4524589;28;20037;-62
2022/12/29 13:25:02;;;;;;;;;;;;;;;;;;4527085;28;20041;-62
2022/12/29 13:27:18;;;;;;;0.50;0.40;;;;;;;;;;4525262;28;19917;-61
2022/12/29 13:29:39;;;;;;;0.60;0.40;;;;;;;;;;4527280;28;20059;-62
2022/12/29 13:32:12;;;;;;;0.68;0.50;;;;;;;;;;4525071;28;20596;-61
2022/12/29 13:34:33;;;;;;;0.28;0.28;;;;;;;;;;4520211;28;20151;-62
2022/12/29 13:36:44;;;;;;;0.40;0.40;;;;;;;;;;4524598;28;20671;-62
2022/12/29 13:39:01;;;;;;;0.47;0.30;;;;;;;;;;4525223;28;20115;-62
2022/12/29 13:41:23;;;;;;;0.20;0.20;;;;;;;;;;4525540;28;20045;-62
2022/12/29 13:43:35;;;;;;;0.82;0.30;;;;;;;;;;4527649;28;20044;-62
2022/12/29 13:45:50;;;;;;;0.93;0.50;;;;;;;;;;4525845;28;20133;-62
2022/12/29 13:48:11;;;;;;;0.90;0.50;;;;;;;;;;4524884;28;20033;-62
2022/12/29 13:50:23;;;;;;;1.25;0.38;;;;;;;;;;4526434;28;20033;-63
2022/12/29 13:52:39;;;;;;;0.30;0.30;;;;;;;;;;4525243;28;20088;-62
2022/12/29 13:55:02;;;;;;;0.30;0.30;;;;;;;;;;4525040;28;20048;-61
2022/12/29 13:57:28;;;;;;;0.60;0.30;;;;;;;;;;4526897;28;20091;-62
2022/12/29 13:59:42;;;;;;;0.73;0.37;;;;;;;;;;4526966;28;20626;-63
2022/12/29 14:01:58;;;;;;;0.30;0.30;;;;;;;;;;4526562;28;20096;-64
2022/12/29 14:04:13;;;;;;;0.90;0.45;;;;;;;;;;4526327;28;20639;-63